sensor_id;sensor_type;location;lat;lon;timestamp;P1;durP1;ratioP1;P2;durP2;ratioP2
5752;SDS011;2901;42.140;24.760;2023-01-15T00:00:01;14.10;;;11.33;;
5752;SDS011;2901;42.140;24.760;2023-01-15T00:02:29;14.90;;;12.20;;
5752;SDS011;2901;42.140;24.760;2023-01-15T00:04:55;12.87;;;11.17;;
5752;SDS011;2901;42.140;24.760;2023-01-15T00:07:21;16.13;;;11.30;;
5752;SDS011;2901;42.140;24.760;2023-01-15T00:09:46;13.60;;;10.85;;
5752;SDS011;2901;42.140;24.760;2023-01-15T00:12:11;14.17;;;11.43;;
5752;SDS011;2901;42.140;24.760;2023-01-15T00:14:37;16.60;;;11.77;;
5752;SDS011;2901;42.140;24.760;2023-01-15T00:17:02;13.10;;;11.70;;
5752;SDS011;2901;42.140;24.760;2023-01-15T00:19:27;14.70;;;10.40;;
5752;SDS011;2901;42.140;24.760;2023-01-15T00:21:53;16.33;;;11.43;;
5752;SDS011;2901;42.140;24.760;2023-01-15T00:24:18;14.45;;;11.48;;
5752;SDS011;2901;42.140;24.760;2023-01-15T00:27:02;13.23;;;11.07;;
5752;SDS011;2901;42.140;24.760;2023-01-15T00:29:46;15.10;;;11.57;;
5752;SDS011;2901;42.140;24.760;2023-01-15T00:32:11;13.60;;;12.20;;
5752;SDS011;2901;42.140;24.760;2023-01-15T00:34:37;10.93;;;9.93;;
5752;SDS011;2901;42.140;24.760;2023-01-15T00:37:02;12.23;;;11.00;;
5752;SDS011;2901;42.140;24.760;2023-01-15T00:39:28;12.88;;;10.55;;
5752;SDS011;2901;42.140;24.760;2023-01-15T00:41:54;11.73;;;10.63;;
5752;SDS011;2901;42.140;24.760;2023-01-15T00:44:20;12.32;;;11.13;;
5752;SDS011;2901;42.140;24.760;2023-01-15T00:46:45;12.10;;;10.80;;
5752;SDS011;2901;42.140;24.760;2023-01-15T00:49:11;13.55;;;11.07;;
5752;SDS011;2901;42.140;24.760;2023-01-15T00:51:37;11.00;;;9.90;;
5752;SDS011;2901;42.140;24.760;2023-01-15T00:54:02;10.80;;;9.70;;
5752;SDS011;2901;42.140;24.760;2023-01-15T00:56:28;15.43;;;11.47;;
5752;SDS011;2901;42.140;24.760;2023-01-15T00:58:53;11.18;;;10.07;;
5752;SDS011;2901;42.140;24.760;2023-01-15T01:01:19;20.98;;;15.32;;
5752;SDS011;2901;42.140;24.760;2023-01-15T01:03:45;11.73;;;10.63;;
5752;SDS011;2901;42.140;24.760;2023-01-15T01:06:13;13.63;;;12.27;;
5752;SDS011;2901;42.140;24.760;2023-01-15T01:08:40;14.13;;;11.77;;
5752;SDS011;2901;42.140;24.760;2023-01-15T01:11:06;12.95;;;11.65;;
5752;SDS011;2901;42.140;24.760;2023-01-15T01:13:34;13.20;;;11.10;;
5752;SDS011;2901;42.140;24.760;2023-01-15T01:16:01;11.63;;;10.13;;
5752;SDS011;2901;42.140;24.760;2023-01-15T01:18:27;12.52;;;10.85;;
5752;SDS011;2901;42.140;24.760;2023-01-15T01:20:52;14.57;;;12.13;;
5752;SDS011;2901;42.140;24.760;2023-01-15T01:23:18;13.30;;;11.90;;
5752;SDS011;2901;42.140;24.760;2023-01-15T01:25:44;13.67;;;12.27;;
5752;SDS011;2901;42.140;24.760;2023-01-15T01:28:10;18.77;;;11.70;;
5752;SDS011;2901;42.140;24.760;2023-01-15T01:30:36;11.87;;;10.73;;
5752;SDS011;2901;42.140;24.760;2023-01-15T01:33:02;14.33;;;12.30;;
5752;SDS011;2901;42.140;24.760;2023-01-15T01:35:28;12.50;;;11.23;;
5752;SDS011;2901;42.140;24.760;2023-01-15T01:37:53;13.00;;;11.37;;
5752;SDS011;2901;42.140;24.760;2023-01-15T01:40:18;11.57;;;10.33;;
5752;SDS011;2901;42.140;24.760;2023-01-15T01:42:44;15.47;;;11.30;;
5752;SDS011;2901;42.140;24.760;2023-01-15T01:45:18;18.90;;;12.00;;
5752;SDS011;2901;42.140;24.760;2023-01-15T01:47:49;16.47;;;12.67;;
5752;SDS011;2901;42.140;24.760;2023-01-15T01:50:16;14.77;;;12.27;;
5752;SDS011;2901;42.140;24.760;2023-01-15T01:52:46;17.53;;;11.67;;
5752;SDS011;2901;42.140;24.760;2023-01-15T01:55:34;14.70;;;11.70;;
5752;SDS011;2901;42.140;24.760;2023-01-15T01:58:01;16.35;;;12.25;;
5752;SDS011;2901;42.140;24.760;2023-01-15T02:00:31;15.60;;;12.33;;
5752;SDS011;2901;42.140;24.760;2023-01-15T02:02:57;15.25;;;12.30;;
5752;SDS011;2901;42.140;24.760;2023-01-15T02:05:29;14.83;;;12.53;;
5752;SDS011;2901;42.140;24.760;2023-01-15T02:07:57;15.53;;;12.43;;
5752;SDS011;2901;42.140;24.760;2023-01-15T02:10:22;13.37;;;11.97;;
5752;SDS011;2901;42.140;24.760;2023-01-15T02:15:45;12.25;;;10.98;;
5752;SDS011;2901;42.140;24.760;2023-01-15T02:21:12;16.65;;;11.02;;
5752;SDS011;2901;42.140;24.760;2023-01-15T02:23:53;17.58;;;11.90;;
5752;SDS011;2901;42.140;24.760;2023-01-15T02:26:49;15.65;;;11.55;;
5752;SDS011;2901;42.140;24.760;2023-01-15T02:35:05;12.93;;;10.63;;
5752;SDS011;2901;42.140;24.760;2023-01-15T02:37:53;13.63;;;11.17;;
5752;SDS011;2901;42.140;24.760;2023-01-15T02:40:22;12.83;;;10.33;;
5752;SDS011;2901;42.140;24.760;2023-01-15T02:42:50;13.27;;;10.63;;
5752;SDS011;2901;42.140;24.760;2023-01-15T02:45:21;14.10;;;10.80;;
5752;SDS011;2901;42.140;24.760;2023-01-15T02:47:51;14.67;;;11.47;;
5752;SDS011;2901;42.140;24.760;2023-01-15T02:50:22;15.67;;;12.27;;
5752;SDS011;2901;42.140;24.760;2023-01-15T02:52:53;12.27;;;11.03;;
5752;SDS011;2901;42.140;24.760;2023-01-15T02:55:23;13.10;;;11.40;;
5752;SDS011;2901;42.140;24.760;2023-01-15T02:57:53;15.80;;;11.20;;
5752;SDS011;2901;42.140;24.760;2023-01-15T03:00:23;16.30;;;11.83;;
5752;SDS011;2901;42.140;24.760;2023-01-15T03:03:06;14.73;;;12.90;;
5752;SDS011;2901;42.140;24.760;2023-01-15T03:08:56;16.17;;;13.10;;
5752;SDS011;2901;42.140;24.760;2023-01-15T03:11:22;17.63;;;13.13;;
5752;SDS011;2901;42.140;24.760;2023-01-15T03:19:08;15.77;;;13.07;;
5752;SDS011;2901;42.140;24.760;2023-01-15T03:24:23;16.27;;;12.33;;
5752;SDS011;2901;42.140;24.760;2023-01-15T03:26:54;16.53;;;12.90;;
5752;SDS011;2901;42.140;24.760;2023-01-15T03:29:21;16.13;;;12.33;;
5752;SDS011;2901;42.140;24.760;2023-01-15T03:31:49;15.93;;;13.17;;
5752;SDS011;2901;42.140;24.760;2023-01-15T03:34:15;20.63;;;14.50;;
5752;SDS011;2901;42.140;24.760;2023-01-15T03:36:41;13.93;;;12.27;;
5752;SDS011;2901;42.140;24.760;2023-01-15T03:39:07;15.83;;;13.20;;
5752;SDS011;2901;42.140;24.760;2023-01-15T03:44:25;18.57;;;14.23;;
5752;SDS011;2901;42.140;24.760;2023-01-15T03:47:09;21.60;;;14.53;;
5752;SDS011;2901;42.140;24.760;2023-01-15T03:55:24;15.60;;;13.10;;
5752;SDS011;2901;42.140;24.760;2023-01-15T03:57:58;16.17;;;12.83;;
5752;SDS011;2901;42.140;24.760;2023-01-15T04:00:36;15.87;;;12.67;;
5752;SDS011;2901;42.140;24.760;2023-01-15T04:03:06;17.77;;;12.80;;
5752;SDS011;2901;42.140;24.760;2023-01-15T04:05:34;15.30;;;13.23;;
5752;SDS011;2901;42.140;24.760;2023-01-15T04:08:02;18.67;;;14.20;;
5752;SDS011;2901;42.140;24.760;2023-01-15T04:10:28;13.33;;;11.93;;
5752;SDS011;2901;42.140;24.760;2023-01-15T04:12:54;15.27;;;13.27;;
5752;SDS011;2901;42.140;24.760;2023-01-15T04:15:19;17.37;;;13.07;;
5752;SDS011;2901;42.140;24.760;2023-01-15T04:17:45;16.05;;;12.88;;
5752;SDS011;2901;42.140;24.760;2023-01-15T04:20:10;14.68;;;12.75;;
5752;SDS011;2901;42.140;24.760;2023-01-15T04:22:36;20.90;;;16.37;;
5752;SDS011;2901;42.140;24.760;2023-01-15T04:25:02;23.13;;;16.50;;
5752;SDS011;2901;42.140;24.760;2023-01-15T04:27:29;19.17;;;15.00;;
5752;SDS011;2901;42.140;24.760;2023-01-15T04:29:54;22.80;;;15.10;;
5752;SDS011;2901;42.140;24.760;2023-01-15T04:32:20;20.03;;;14.90;;
5752;SDS011;2901;42.140;24.760;2023-01-15T04:34:45;27.57;;;14.70;;
5752;SDS011;2901;42.140;24.760;2023-01-15T04:37:11;23.53;;;14.43;;
5752;SDS011;2901;42.140;24.760;2023-01-15T04:39:37;30.47;;;16.07;;
5752;SDS011;2901;42.140;24.760;2023-01-15T04:42:02;26.13;;;16.00;;
5752;SDS011;2901;42.140;24.760;2023-01-15T04:44:46;30.33;;;16.20;;
5752;SDS011;2901;42.140;24.760;2023-01-15T04:47:12;27.80;;;17.13;;
5752;SDS011;2901;42.140;24.760;2023-01-15T04:49:37;27.17;;;16.30;;
5752;SDS011;2901;42.140;24.760;2023-01-15T04:52:03;28.70;;;15.40;;
5752;SDS011;2901;42.140;24.760;2023-01-15T04:54:28;27.10;;;17.43;;
5752;SDS011;2901;42.140;24.760;2023-01-15T04:56:54;28.60;;;17.33;;
5752;SDS011;2901;42.140;24.760;2023-01-15T04:59:21;27.63;;;16.60;;
5752;SDS011;2901;42.140;24.760;2023-01-15T05:01:48;28.00;;;15.00;;
5752;SDS011;2901;42.140;24.760;2023-01-15T05:04:14;30.57;;;16.00;;
5752;SDS011;2901;42.140;24.760;2023-01-15T05:06:39;29.57;;;15.13;;
5752;SDS011;2901;42.140;24.760;2023-01-15T05:09:05;31.83;;;15.23;;
5752;SDS011;2901;42.140;24.760;2023-01-15T05:11:30;35.30;;;16.33;;
5752;SDS011;2901;42.140;24.760;2023-01-15T05:13:59;34.70;;;16.40;;
5752;SDS011;2901;42.140;24.760;2023-01-15T05:16:25;30.40;;;15.43;;
5752;SDS011;2901;42.140;24.760;2023-01-15T05:18:52;36.30;;;16.33;;
5752;SDS011;2901;42.140;24.760;2023-01-15T05:21:23;33.50;;;16.03;;
5752;SDS011;2901;42.140;24.760;2023-01-15T05:23:50;33.57;;;15.60;;
5752;SDS011;2901;42.140;24.760;2023-01-15T05:26:18;35.37;;;14.73;;
5752;SDS011;2901;42.140;24.760;2023-01-15T05:28:45;35.70;;;16.00;;
5752;SDS011;2901;42.140;24.760;2023-01-15T05:31:11;30.33;;;15.60;;
5752;SDS011;2901;42.140;24.760;2023-01-15T05:33:38;27.07;;;14.90;;
5752;SDS011;2901;42.140;24.760;2023-01-15T05:36:05;27.63;;;15.40;;
5752;SDS011;2901;42.140;24.760;2023-01-15T05:38:35;27.27;;;14.07;;
5752;SDS011;2901;42.140;24.760;2023-01-15T05:41:05;26.30;;;13.57;;
5752;SDS011;2901;42.140;24.760;2023-01-15T05:43:59;23.47;;;13.00;;
5752;SDS011;2901;42.140;24.760;2023-01-15T05:46:26;21.70;;;11.37;;
5752;SDS011;2901;42.140;24.760;2023-01-15T05:48:52;17.97;;;12.20;;
5752;SDS011;2901;42.140;24.760;2023-01-15T05:51:18;13.93;;;9.87;;
5752;SDS011;2901;42.140;24.760;2023-01-15T05:53:43;14.63;;;10.63;;
5752;SDS011;2901;42.140;24.760;2023-01-15T05:56:09;11.57;;;9.53;;
5752;SDS011;2901;42.140;24.760;2023-01-15T05:58:35;11.90;;;9.13;;
5752;SDS011;2901;42.140;24.760;2023-01-15T06:01:04;14.03;;;10.53;;
5752;SDS011;2901;42.140;24.760;2023-01-15T06:03:31;13.37;;;10.27;;
5752;SDS011;2901;42.140;24.760;2023-01-15T06:05:56;10.37;;;9.30;;
5752;SDS011;2901;42.140;24.760;2023-01-15T06:08:22;13.53;;;9.23;;
5752;SDS011;2901;42.140;24.760;2023-01-15T06:10:48;10.47;;;9.40;;
5752;SDS011;2901;42.140;24.760;2023-01-15T06:13:15;10.30;;;8.50;;
5752;SDS011;2901;42.140;24.760;2023-01-15T06:15:41;12.50;;;9.20;;
5752;SDS011;2901;42.140;24.760;2023-01-15T06:18:07;12.47;;;9.80;;
5752;SDS011;2901;42.140;24.760;2023-01-15T06:20:40;13.73;;;10.93;;
5752;SDS011;2901;42.140;24.760;2023-01-15T06:23:06;12.37;;;9.70;;
5752;SDS011;2901;42.140;24.760;2023-01-15T06:25:33;11.10;;;10.07;;
5752;SDS011;2901;42.140;24.760;2023-01-15T06:28:01;14.20;;;9.07;;
5752;SDS011;2901;42.140;24.760;2023-01-15T06:30:29;20.90;;;9.93;;
5752;SDS011;2901;42.140;24.760;2023-01-15T06:32:55;16.07;;;10.03;;
5752;SDS011;2901;42.140;24.760;2023-01-15T06:35:20;12.73;;;9.50;;
5752;SDS011;2901;42.140;24.760;2023-01-15T06:37:47;16.50;;;10.10;;
5752;SDS011;2901;42.140;24.760;2023-01-15T06:40:13;10.80;;;8.23;;
5752;SDS011;2901;42.140;24.760;2023-01-15T06:42:39;16.63;;;8.77;;
5752;SDS011;2901;42.140;24.760;2023-01-15T06:45:22;12.90;;;9.03;;
5752;SDS011;2901;42.140;24.760;2023-01-15T06:48:06;16.90;;;9.57;;
5752;SDS011;2901;42.140;24.760;2023-01-15T06:50:32;17.17;;;10.60;;
5752;SDS011;2901;42.140;24.760;2023-01-15T06:52:57;23.73;;;11.87;;
5752;SDS011;2901;42.140;24.760;2023-01-15T06:55:22;14.50;;;10.80;;
5752;SDS011;2901;42.140;24.760;2023-01-15T06:57:48;18.67;;;10.57;;
5752;SDS011;2901;42.140;24.760;2023-01-15T07:00:13;17.03;;;10.33;;
5752;SDS011;2901;42.140;24.760;2023-01-15T07:02:39;18.93;;;11.93;;
5752;SDS011;2901;42.140;24.760;2023-01-15T07:05:05;22.63;;;11.93;;
5752;SDS011;2901;42.140;24.760;2023-01-15T07:07:32;24.20;;;12.40;;
5752;SDS011;2901;42.140;24.760;2023-01-15T07:09:58;17.20;;;11.03;;
5752;SDS011;2901;42.140;24.760;2023-01-15T07:12:23;23.33;;;11.80;;
5752;SDS011;2901;42.140;24.760;2023-01-15T07:14:49;20.07;;;11.00;;
5752;SDS011;2901;42.140;24.760;2023-01-15T07:17:14;15.47;;;11.03;;
5752;SDS011;2901;42.140;24.760;2023-01-15T07:19:40;13.73;;;10.50;;
5752;SDS011;2901;42.140;24.760;2023-01-15T07:22:06;20.80;;;11.07;;
5752;SDS011;2901;42.140;24.760;2023-01-15T07:24:31;15.20;;;11.93;;
5752;SDS011;2901;42.140;24.760;2023-01-15T07:26:57;15.70;;;12.97;;
5752;SDS011;2901;42.140;24.760;2023-01-15T07:29:23;11.60;;;9.63;;
5752;SDS011;2901;42.140;24.760;2023-01-15T07:31:49;19.87;;;10.47;;
5752;SDS011;2901;42.140;24.760;2023-01-15T07:34:15;11.43;;;9.57;;
5752;SDS011;2901;42.140;24.760;2023-01-15T07:36:40;17.83;;;10.50;;
5752;SDS011;2901;42.140;24.760;2023-01-15T07:39:07;15.57;;;8.87;;
5752;SDS011;2901;42.140;24.760;2023-01-15T07:41:33;10.87;;;9.87;;
5752;SDS011;2901;42.140;24.760;2023-01-15T07:44:18;11.80;;;10.53;;
5752;SDS011;2901;42.140;24.760;2023-01-15T07:47:02;13.57;;;10.50;;
5752;SDS011;2901;42.140;24.760;2023-01-15T07:49:53;15.40;;;11.10;;
5752;SDS011;2901;42.140;24.760;2023-01-15T07:52:20;15.57;;;10.67;;
5752;SDS011;2901;42.140;24.760;2023-01-15T07:54:47;11.23;;;10.03;;
5752;SDS011;2901;42.140;24.760;2023-01-15T07:57:14;14.60;;;10.07;;
5752;SDS011;2901;42.140;24.760;2023-01-15T07:59:42;14.90;;;11.37;;
5752;SDS011;2901;42.140;24.760;2023-01-15T08:02:07;13.93;;;11.13;;
5752;SDS011;2901;42.140;24.760;2023-01-15T08:04:33;15.82;;;11.10;;
5752;SDS011;2901;42.140;24.760;2023-01-15T08:06:59;14.50;;;10.50;;
5752;SDS011;2901;42.140;24.760;2023-01-15T08:09:25;16.80;;;11.37;;
5752;SDS011;2901;42.140;24.760;2023-01-15T08:11:51;15.57;;;12.73;;
5752;SDS011;2901;42.140;24.760;2023-01-15T08:14:35;15.73;;;12.60;;
5752;SDS011;2901;42.140;24.760;2023-01-15T08:17:19;18.50;;;12.02;;
5752;SDS011;2901;42.140;24.760;2023-01-15T08:19:45;17.83;;;12.67;;
5752;SDS011;2901;42.140;24.760;2023-01-15T08:22:10;15.95;;;12.73;;
5752;SDS011;2901;42.140;24.760;2023-01-15T08:24:36;19.50;;;12.68;;
5752;SDS011;2901;42.140;24.760;2023-01-15T08:27:02;15.40;;;11.50;;
5752;SDS011;2901;42.140;24.760;2023-01-15T08:29:27;20.25;;;13.00;;
5752;SDS011;2901;42.140;24.760;2023-01-15T08:31:53;19.58;;;13.60;;
5752;SDS011;2901;42.140;24.760;2023-01-15T08:34:18;16.43;;;13.10;;
5752;SDS011;2901;42.140;24.760;2023-01-15T08:36:44;20.23;;;12.52;;
5752;SDS011;2901;42.140;24.760;2023-01-15T08:39:09;15.63;;;12.55;;
5752;SDS011;2901;42.140;24.760;2023-01-15T08:41:35;18.27;;;13.20;;
5752;SDS011;2901;42.140;24.760;2023-01-15T08:44:00;18.80;;;11.93;;
5752;SDS011;2901;42.140;24.760;2023-01-15T08:46:26;19.55;;;11.50;;
5752;SDS011;2901;42.140;24.760;2023-01-15T08:48:51;16.23;;;11.95;;
5752;SDS011;2901;42.140;24.760;2023-01-15T08:51:19;18.27;;;14.33;;
5752;SDS011;2901;42.140;24.760;2023-01-15T08:53:45;21.55;;;13.13;;
5752;SDS011;2901;42.140;24.760;2023-01-15T08:56:11;25.02;;;15.70;;
5752;SDS011;2901;42.140;24.760;2023-01-15T08:58:38;25.43;;;14.40;;
5752;SDS011;2901;42.140;24.760;2023-01-15T09:01:06;20.95;;;14.50;;
5752;SDS011;2901;42.140;24.760;2023-01-15T09:03:33;20.80;;;13.73;;
5752;SDS011;2901;42.140;24.760;2023-01-15T09:06:00;17.60;;;12.15;;
5752;SDS011;2901;42.140;24.760;2023-01-15T09:08:26;16.95;;;12.70;;
5752;SDS011;2901;42.140;24.760;2023-01-15T09:11:00;18.98;;;13.63;;
5752;SDS011;2901;42.140;24.760;2023-01-15T09:13:26;19.17;;;13.23;;
5752;SDS011;2901;42.140;24.760;2023-01-15T09:15:53;16.42;;;12.38;;
5752;SDS011;2901;42.140;24.760;2023-01-15T09:18:18;17.80;;;14.13;;
5752;SDS011;2901;42.140;24.760;2023-01-15T09:20:47;17.73;;;13.52;;
5752;SDS011;2901;42.140;24.760;2023-01-15T09:23:13;15.87;;;12.50;;
5752;SDS011;2901;42.140;24.760;2023-01-15T09:25:39;18.27;;;12.40;;
5752;SDS011;2901;42.140;24.760;2023-01-15T09:28:06;14.27;;;11.93;;
5752;SDS011;2901;42.140;24.760;2023-01-15T09:30:31;19.83;;;11.25;;
5752;SDS011;2901;42.140;24.760;2023-01-15T09:32:57;20.20;;;14.38;;
5752;SDS011;2901;42.140;24.760;2023-01-15T09:35:23;14.85;;;11.65;;
5752;SDS011;2901;42.140;24.760;2023-01-15T09:37:51;16.33;;;11.82;;
5752;SDS011;2901;42.140;24.760;2023-01-15T09:46:15;14.15;;;11.52;;
5752;SDS011;2901;42.140;24.760;2023-01-15T09:51:41;12.13;;;10.98;;
5752;SDS011;2901;42.140;24.760;2023-01-15T09:54:19;11.87;;;10.77;;
5752;SDS011;2901;42.140;24.760;2023-01-15T09:56:48;11.47;;;10.37;;
5752;SDS011;2901;42.140;24.760;2023-01-15T10:05:10;11.18;;;9.25;;
5752;SDS011;2901;42.140;24.760;2023-01-15T10:07:45;10.83;;;9.77;;
5752;SDS011;2901;42.140;24.760;2023-01-15T10:10:29;10.13;;;9.27;;
5752;SDS011;2901;42.140;24.760;2023-01-15T10:13:01;10.20;;;9.07;;
5752;SDS011;2901;42.140;24.760;2023-01-15T10:15:39;10.90;;;9.93;;
5752;SDS011;2901;42.140;24.760;2023-01-15T10:18:15;9.80;;;9.00;;
5752;SDS011;2901;42.140;24.760;2023-01-15T10:20:47;10.53;;;9.70;;
5752;SDS011;2901;42.140;24.760;2023-01-15T10:26:02;11.07;;;9.97;;
5752;SDS011;2901;42.140;24.760;2023-01-15T10:31:22;10.97;;;9.83;;
5752;SDS011;2901;42.140;24.760;2023-01-15T10:39:34;10.07;;;9.20;;
5752;SDS011;2901;42.140;24.760;2023-01-15T10:45:00;9.97;;;9.17;;
5752;SDS011;2901;42.140;24.760;2023-01-15T10:47:33;10.33;;;9.33;;
5752;SDS011;2901;42.140;24.760;2023-01-15T10:50:22;9.90;;;9.00;;
5752;SDS011;2901;42.140;24.760;2023-01-15T10:52:49;8.13;;;7.53;;
5752;SDS011;2901;42.140;24.760;2023-01-15T10:55:33;8.00;;;7.23;;
5752;SDS011;2901;42.140;24.760;2023-01-15T11:01:04;10.03;;;8.83;;
5752;SDS011;2901;42.140;24.760;2023-01-15T11:03:37;11.07;;;8.47;;
5752;SDS011;2901;42.140;24.760;2023-01-15T11:06:06;9.73;;;8.82;;
5752;SDS011;2901;42.140;24.760;2023-01-15T11:08:37;9.38;;;8.55;;
5752;SDS011;2901;42.140;24.760;2023-01-15T11:11:16;8.60;;;7.80;;
5752;SDS011;2901;42.140;24.760;2023-01-15T11:13:51;8.40;;;7.60;;
5752;SDS011;2901;42.140;24.760;2023-01-15T11:16:37;9.23;;;7.43;;
5752;SDS011;2901;42.140;24.760;2023-01-15T11:19:27;11.30;;;9.60;;
5752;SDS011;2901;42.140;24.760;2023-01-15T11:22:13;13.37;;;9.47;;
5752;SDS011;2901;42.140;24.760;2023-01-15T11:24:59;13.27;;;8.47;;
5752;SDS011;2901;42.140;24.760;2023-01-15T11:27:31;11.70;;;9.17;;
5752;SDS011;2901;42.140;24.760;2023-01-15T11:29:59;16.25;;;10.00;;
5752;SDS011;2901;42.140;24.760;2023-01-15T11:32:34;11.27;;;10.07;;
5752;SDS011;2901;42.140;24.760;2023-01-15T11:35:18;22.38;;;10.38;;
5752;SDS011;2901;42.140;24.760;2023-01-15T11:37:44;15.90;;;9.67;;
5752;SDS011;2901;42.140;24.760;2023-01-15T11:40:16;12.38;;;8.68;;
5752;SDS011;2901;42.140;24.760;2023-01-15T11:42:49;12.73;;;9.70;;
5752;SDS011;2901;42.140;24.760;2023-01-15T11:45:33;12.93;;;10.50;;
5752;SDS011;2901;42.140;24.760;2023-01-15T11:48:43;16.93;;;10.90;;
5752;SDS011;2901;42.140;24.760;2023-01-15T11:51:29;18.15;;;10.18;;
5752;SDS011;2901;42.140;24.760;2023-01-15T11:54:03;16.17;;;10.85;;
5752;SDS011;2901;42.140;24.760;2023-01-15T11:56:31;16.67;;;11.27;;
5752;SDS011;2901;42.140;24.760;2023-01-15T11:59:03;17.43;;;11.10;;
5752;SDS011;2901;42.140;24.760;2023-01-15T12:01:35;17.10;;;11.07;;
5752;SDS011;2901;42.140;24.760;2023-01-15T12:04:28;17.13;;;11.57;;
5752;SDS011;2901;42.140;24.760;2023-01-15T12:06:54;18.47;;;11.33;;
5752;SDS011;2901;42.140;24.760;2023-01-15T12:09:27;20.47;;;10.63;;
5752;SDS011;2901;42.140;24.760;2023-01-15T12:20:32;16.27;;;11.43;;
5752;SDS011;2901;42.140;24.760;2023-01-15T12:28:46;15.20;;;11.37;;
5752;SDS011;2901;42.140;24.760;2023-01-15T12:31:23;17.50;;;12.23;;
5752;SDS011;2901;42.140;24.760;2023-01-15T12:34:06;18.40;;;12.67;;
5752;SDS011;2901;42.140;24.760;2023-01-15T12:39:26;21.20;;;12.77;;
5752;SDS011;2901;42.140;24.760;2023-01-15T12:41:56;20.53;;;12.50;;
5752;SDS011;2901;42.140;24.760;2023-01-15T12:44:48;25.10;;;13.23;;
5752;SDS011;2901;42.140;24.760;2023-01-15T12:50:31;22.77;;;12.27;;
5752;SDS011;2901;42.140;24.760;2023-01-15T12:55:38;21.93;;;10.97;;
5752;SDS011;2901;42.140;24.760;2023-01-15T13:01:03;26.88;;;12.10;;
5752;SDS011;2901;42.140;24.760;2023-01-15T13:03:52;17.50;;;10.53;;
5752;SDS011;2901;42.140;24.760;2023-01-15T13:06:28;17.40;;;11.73;;
5752;SDS011;2901;42.140;24.760;2023-01-15T13:11:42;19.60;;;11.17;;
5752;SDS011;2901;42.140;24.760;2023-01-15T13:14:11;21.03;;;11.73;;
5752;SDS011;2901;42.140;24.760;2023-01-15T13:22:06;14.25;;;11.23;;
5752;SDS011;2901;42.140;24.760;2023-01-15T13:32:43;14.77;;;11.27;;
5752;SDS011;2901;42.140;24.760;2023-01-15T13:35:31;13.17;;;10.97;;
5752;SDS011;2901;42.140;24.760;2023-01-15T13:38:01;14.93;;;10.90;;
5752;SDS011;2901;42.140;24.760;2023-01-15T13:40:40;21.83;;;11.63;;
5752;SDS011;2901;42.140;24.760;2023-01-15T13:43:20;12.20;;;11.00;;
5752;SDS011;2901;42.140;24.760;2023-01-15T13:45:51;20.63;;;11.40;;
5752;SDS011;2901;42.140;24.760;2023-01-15T13:48:22;11.07;;;9.37;;
5752;SDS011;2901;42.140;24.760;2023-01-15T13:50:56;16.10;;;11.10;;
5752;SDS011;2901;42.140;24.760;2023-01-15T13:58:32;16.37;;;10.93;;
5752;SDS011;2901;42.140;24.760;2023-01-15T14:01:21;11.90;;;10.80;;
5752;SDS011;2901;42.140;24.760;2023-01-15T14:09:29;12.50;;;11.10;;
5752;SDS011;2901;42.140;24.760;2023-01-15T14:17:00;12.53;;;11.23;;
5752;SDS011;2901;42.140;24.760;2023-01-15T14:25:25;12.93;;;11.63;;
5752;SDS011;2901;42.140;24.760;2023-01-15T14:33:31;11.03;;;9.97;;
5752;SDS011;2901;42.140;24.760;2023-01-15T14:36:07;12.23;;;11.23;;
5752;SDS011;2901;42.140;24.760;2023-01-15T14:38:48;15.10;;;10.90;;
5752;SDS011;2901;42.140;24.760;2023-01-15T14:41:25;14.80;;;10.87;;
5752;SDS011;2901;42.140;24.760;2023-01-15T14:43:56;12.30;;;10.40;;
5752;SDS011;2901;42.140;24.760;2023-01-15T14:46:33;10.60;;;9.60;;
5752;SDS011;2901;42.140;24.760;2023-01-15T14:48:59;10.13;;;9.33;;
5752;SDS011;2901;42.140;24.760;2023-01-15T14:53:51;10.47;;;9.33;;
5752;SDS011;2901;42.140;24.760;2023-01-15T15:07:01;10.20;;;9.40;;
5752;SDS011;2901;42.140;24.760;2023-01-15T15:12:39;10.50;;;9.50;;
5752;SDS011;2901;42.140;24.760;2023-01-15T15:18:06;10.90;;;9.87;;
5752;SDS011;2901;42.140;24.760;2023-01-15T15:26:05;12.43;;;11.20;;
5752;SDS011;2901;42.140;24.760;2023-01-15T15:28:42;13.23;;;11.93;;
5752;SDS011;2901;42.140;24.760;2023-01-15T15:31:19;12.10;;;10.87;;
5752;SDS011;2901;42.140;24.760;2023-01-15T15:33:49;12.47;;;11.37;;
5752;SDS011;2901;42.140;24.760;2023-01-15T15:36:16;15.30;;;11.00;;
5752;SDS011;2901;42.140;24.760;2023-01-15T15:38:50;13.50;;;10.83;;
5752;SDS011;2901;42.140;24.760;2023-01-15T15:41:17;12.07;;;10.87;;
5752;SDS011;2901;42.140;24.760;2023-01-15T15:44:03;11.93;;;10.83;;
5752;SDS011;2901;42.140;24.760;2023-01-15T15:46:50;15.37;;;12.43;;
5752;SDS011;2901;42.140;24.760;2023-01-15T15:49:38;15.87;;;12.83;;
5752;SDS011;2901;42.140;24.760;2023-01-15T15:52:12;13.30;;;11.60;;
5752;SDS011;2901;42.140;24.760;2023-01-15T15:54:43;21.93;;;13.30;;
5752;SDS011;2901;42.140;24.760;2023-01-15T15:57:16;15.77;;;12.27;;
5752;SDS011;2901;42.140;24.760;2023-01-15T15:59:45;14.10;;;11.57;;
5752;SDS011;2901;42.140;24.760;2023-01-15T16:02:32;13.53;;;11.03;;
5752;SDS011;2901;42.140;24.760;2023-01-15T16:05:03;12.17;;;10.87;;
5752;SDS011;2901;42.140;24.760;2023-01-15T16:07:43;18.13;;;11.83;;
5752;SDS011;2901;42.140;24.760;2023-01-15T16:12:37;15.17;;;12.53;;
5752;SDS011;2901;42.140;24.760;2023-01-15T16:15:13;20.60;;;13.30;;
5752;SDS011;2901;42.140;24.760;2023-01-15T16:17:40;18.33;;;13.97;;
5752;SDS011;2901;42.140;24.760;2023-01-15T16:20:13;13.17;;;11.87;;
5752;SDS011;2901;42.140;24.760;2023-01-15T16:22:49;20.47;;;13.37;;
5752;SDS011;2901;42.140;24.760;2023-01-15T16:25:20;21.93;;;13.57;;
5752;SDS011;2901;42.140;24.760;2023-01-15T16:27:47;20.00;;;15.10;;
5752;SDS011;2901;42.140;24.760;2023-01-15T16:30:13;12.87;;;10.80;;
5752;SDS011;2901;42.140;24.760;2023-01-15T16:32:40;13.10;;;10.57;;
5752;SDS011;2901;42.140;24.760;2023-01-15T16:35:13;9.10;;;8.30;;
5752;SDS011;2901;42.140;24.760;2023-01-15T16:37:39;9.87;;;8.63;;
5752;SDS011;2901;42.140;24.760;2023-01-15T16:40:05;11.27;;;9.77;;
5752;SDS011;2901;42.140;24.760;2023-01-15T16:42:40;10.70;;;9.60;;
5752;SDS011;2901;42.140;24.760;2023-01-15T16:45:18;13.07;;;10.70;;
5752;SDS011;2901;42.140;24.760;2023-01-15T16:50:46;28.40;;;18.83;;
5752;SDS011;2901;42.140;24.760;2023-01-15T16:53:29;25.47;;;14.57;;
5752;SDS011;2901;42.140;24.760;2023-01-15T16:56:03;15.80;;;13.90;;
5752;SDS011;2901;42.140;24.760;2023-01-15T16:58:34;16.63;;;14.70;;
5752;SDS011;2901;42.140;24.760;2023-01-15T17:01:21;18.77;;;14.07;;
5752;SDS011;2901;42.140;24.760;2023-01-15T17:03:47;22.50;;;14.10;;
5752;SDS011;2901;42.140;24.760;2023-01-15T17:06:13;16.90;;;14.63;;
5752;SDS011;2901;42.140;24.760;2023-01-15T17:08:42;19.53;;;15.83;;
5752;SDS011;2901;42.140;24.760;2023-01-15T17:11:18;16.83;;;14.40;;
5752;SDS011;2901;42.140;24.760;2023-01-15T17:13:45;16.73;;;13.77;;
5752;SDS011;2901;42.140;24.760;2023-01-15T17:18:36;15.00;;;13.50;;
5752;SDS011;2901;42.140;24.760;2023-01-15T17:21:02;13.60;;;12.20;;
5752;SDS011;2901;42.140;24.760;2023-01-15T17:23:28;9.80;;;9.00;;
5752;SDS011;2901;42.140;24.760;2023-01-15T17:25:57;7.87;;;7.30;;
5752;SDS011;2901;42.140;24.760;2023-01-15T17:28:23;11.10;;;9.13;;
5752;SDS011;2901;42.140;24.760;2023-01-15T17:30:50;28.47;;;21.00;;
5752;SDS011;2901;42.140;24.760;2023-01-15T17:33:17;10.37;;;9.53;;
5752;SDS011;2901;42.140;24.760;2023-01-15T17:35:43;11.67;;;10.60;;
5752;SDS011;2901;42.140;24.760;2023-01-15T17:38:12;10.70;;;9.77;;
5752;SDS011;2901;42.140;24.760;2023-01-15T17:40:38;11.83;;;10.63;;